createdAt,value
2023-05-18T00:02:16.114Z,6.93
2023-05-18T00:04:52.414Z,10.17
2023-05-18T00:07:30.123Z,6.20
2023-05-18T00:10:07.279Z,5.90
2023-05-18T00:12:43.278Z,7.07
2023-05-18T00:15:19.461Z,9.33
2023-05-18T00:17:57.065Z,10.37
2023-05-18T00:20:34.676Z,8.50
2023-05-18T00:23:16.550Z,8.63
2023-05-18T00:25:52.517Z,8.50
2023-05-18T00:28:29.235Z,8.10
2023-05-18T00:31:06.449Z,7.60
2023-05-18T00:33:42.730Z,7.80
2023-05-18T00:36:18.648Z,7.77
2023-05-18T00:38:55.050Z,7.07
2023-05-18T00:41:31.876Z,6.47
2023-05-18T00:44:08.985Z,7.47
2023-05-18T00:46:44.895Z,6.20
2023-05-18T00:49:21.280Z,9.07
2023-05-18T00:51:57.609Z,6.97
2023-05-18T00:54:35.511Z,12.47
2023-05-18T00:57:11.487Z,6.20
2023-05-18T00:59:47.771Z,8.47
2023-05-18T01:02:24.367Z,9.73
2023-05-18T01:05:00.683Z,7.33
2023-05-18T01:07:38.557Z,7.20
2023-05-18T01:10:17.660Z,7.30
2023-05-18T01:13:13.339Z,7.37
2023-05-18T01:15:54.654Z,9.67
2023-05-18T01:18:54.914Z,6.60
2023-05-18T01:21:57.633Z,6.20
2023-05-18T01:24:49.025Z,8.90
2023-05-18T01:27:25.768Z,9.53
2023-05-18T01:30:03.278Z,6.70
2023-05-18T01:32:42.756Z,6.83
2023-05-18T01:35:18.821Z,8.67
2023-05-18T01:37:54.741Z,8.20
2023-05-18T01:40:43.903Z,7.33
2023-05-18T01:43:23.755Z,9.10
2023-05-18T01:46:22.883Z,6.83
2023-05-18T01:49:17.255Z,8.80
2023-05-18T01:51:56.554Z,8.23
2023-05-18T01:54:36.516Z,7.27
2023-05-18T01:57:15.727Z,10.37
2023-05-18T01:59:52.114Z,6.73
2023-05-18T02:02:28.911Z,9.40
2023-05-18T02:05:07.493Z,8.33
2023-05-18T02:07:44.150Z,8.20
2023-05-18T02:10:20.289Z,7.40
2023-05-18T02:12:56.620Z,8.17
2023-05-18T02:15:32.762Z,10.03
2023-05-18T02:18:08.892Z,9.70
2023-05-18T02:20:48.913Z,9.70
2023-05-18T02:23:24.909Z,9.00
2023-05-18T02:26:00.819Z,8.07
2023-05-18T02:28:40.372Z,9.57
2023-05-18T02:31:16.344Z,10.10
2023-05-18T02:33:52.328Z,10.70
2023-05-18T02:36:28.430Z,9.53
2023-05-18T02:39:04.973Z,7.53
2023-05-18T02:41:40.953Z,11.53
2023-05-18T02:44:16.932Z,9.20
2023-05-18T02:46:52.849Z,9.10
2023-05-18T02:49:28.815Z,9.23
2023-05-18T02:52:05.224Z,8.13
2023-05-18T02:54:41.318Z,7.70
2023-05-18T02:57:23.889Z,9.00
2023-05-18T03:00:16.789Z,9.50
2023-05-18T03:02:57.669Z,8.10
2023-05-18T03:05:33.715Z,8.13
2023-05-18T03:08:10.316Z,9.63
2023-05-18T03:10:46.289Z,13.63
2023-05-18T03:13:23.230Z,10.60
2023-05-18T03:15:59.192Z,8.37
2023-05-18T03:18:35.289Z,11.77
2023-05-18T03:21:13.572Z,9.17
2023-05-18T03:23:49.513Z,17.53
2023-05-18T03:26:26.245Z,10.87
2023-05-18T03:29:02.811Z,9.07
2023-05-18T03:31:39.756Z,11.80
2023-05-18T03:34:16.088Z,10.03
2023-05-18T03:36:54.803Z,10.93
2023-05-18T03:39:30.712Z,10.23
2023-05-18T03:42:06.840Z,8.53
2023-05-18T03:44:43.193Z,8.10
2023-05-18T03:47:19.129Z,8.80
2023-05-18T03:49:55.027Z,12.80
2023-05-18T03:52:34.223Z,11.27
2023-05-18T03:55:11.381Z,9.80
2023-05-18T03:57:49.054Z,9.20
2023-05-18T04:00:25.305Z,9.13
2023-05-18T04:03:03.215Z,10.20
2023-05-18T04:05:39.839Z,9.37
2023-05-18T04:08:15.768Z,8.67
2023-05-18T04:10:52.184Z,9.00
2023-05-18T04:13:28.233Z,7.77
2023-05-18T04:16:04.417Z,9.70
2023-05-18T04:18:41.850Z,7.97
2023-05-18T04:21:19.382Z,9.73
2023-05-18T04:23:55.883Z,7.90
2023-05-18T04:26:36.433Z,10.10
2023-05-18T04:29:13.312Z,7.83
2023-05-18T04:31:49.297Z,10.40
2023-05-18T04:34:26.540Z,9.53
2023-05-18T04:37:05.927Z,9.33
2023-05-18T04:39:42.268Z,7.43
2023-05-18T04:42:20.725Z,10.00
2023-05-18T04:44:57.478Z,9.53
2023-05-18T04:47:34.015Z,9.43
2023-05-18T04:50:10.436Z,13.60
2023-05-18T04:52:48.965Z,13.97
2023-05-18T04:55:27.869Z,11.33
2023-05-18T04:58:06.702Z,10.73
2023-05-18T05:00:43.123Z,10.70
2023-05-18T05:03:20.045Z,9.10
2023-05-18T05:05:56.111Z,9.20
2023-05-18T05:08:34.947Z,8.00
2023-05-18T05:11:10.988Z,6.67
2023-05-18T05:13:46.936Z,8.00
2023-05-18T05:16:23.156Z,9.80
2023-05-18T05:18:59.252Z,6.07
2023-05-18T05:21:36.166Z,8.37
2023-05-18T05:24:12.775Z,7.67
2023-05-18T05:26:50.052Z,9.50
2023-05-18T05:29:26.889Z,6.97
2023-05-18T05:32:03.878Z,8.47
2023-05-18T05:34:40.783Z,7.30
2023-05-18T05:37:18.892Z,5.73
2023-05-18T05:39:56.678Z,7.03
2023-05-18T05:42:33.163Z,6.87
2023-05-18T05:45:09.776Z,6.00
2023-05-18T05:47:58.727Z,8.37
2023-05-18T05:50:35.062Z,6.83
2023-05-18T05:53:12.812Z,4.20
2023-05-18T05:55:49.303Z,4.40
2023-05-18T05:58:26.942Z,4.13
2023-05-18T06:01:08.517Z,8.63
2023-05-18T06:03:45.426Z,6.73
2023-05-18T06:06:22.573Z,7.10
2023-05-18T06:08:58.602Z,6.67
2023-05-18T06:11:34.871Z,6.50
2023-05-18T06:14:11.026Z,8.17
2023-05-18T06:16:47.929Z,6.93
2023-05-18T06:19:24.537Z,5.43
2023-05-18T06:22:01.406Z,4.80
2023-05-18T06:24:42.536Z,4.03
2023-05-18T06:27:40.183Z,3.77
2023-05-18T06:30:45.229Z,7.10
2023-05-18T06:33:26.490Z,5.80
2023-05-18T06:36:03.100Z,6.33
2023-05-18T06:38:39.677Z,5.70
2023-05-18T06:41:15.964Z,6.63
2023-05-18T06:43:52.418Z,7.33
2023-05-18T06:46:31.431Z,4.83
2023-05-18T06:49:10.560Z,3.10
2023-05-18T06:51:46.594Z,3.67
2023-05-18T06:54:23.272Z,5.13
2023-05-18T06:56:59.618Z,8.73
2023-05-18T06:59:35.892Z,4.93
2023-05-18T07:02:12.054Z,5.83
2023-05-18T07:04:49.832Z,3.77
2023-05-18T07:07:26.958Z,6.50
2023-05-18T07:10:04.409Z,7.23
2023-05-18T07:12:40.408Z,3.83
2023-05-18T07:15:16.518Z,2.63
2023-05-18T07:17:52.855Z,5.50
2023-05-18T07:20:29.050Z,8.40
2023-05-18T07:23:05.019Z,4.30
2023-05-18T07:25:41.253Z,4.60
2023-05-18T07:28:17.667Z,3.03
2023-05-18T07:30:53.793Z,5.27
2023-05-18T07:33:29.957Z,7.37
2023-05-18T07:36:06.334Z,4.07
2023-05-18T07:38:42.726Z,5.70
2023-05-18T07:41:18.726Z,2.40
2023-05-18T07:43:54.835Z,4.93
2023-05-18T07:46:31.617Z,6.70
2023-05-18T07:49:07.736Z,4.47
2023-05-18T07:51:44.121Z,4.80
2023-05-18T07:54:20.441Z,3.03
2023-05-18T07:56:58.526Z,6.43
2023-05-18T07:59:35.953Z,5.93
2023-05-18T08:02:12.290Z,4.40
2023-05-18T08:04:48.495Z,4.53
2023-05-18T08:07:26.469Z,2.87
2023-05-18T08:10:02.813Z,8.90
2023-05-18T08:12:38.855Z,8.30
2023-05-18T08:15:15.026Z,2.87
2023-05-18T08:17:52.353Z,5.43
2023-05-18T08:20:31.225Z,4.40
2023-05-18T08:23:07.293Z,4.07
2023-05-18T08:25:43.349Z,10.57
2023-05-18T08:28:19.551Z,5.87
2023-05-18T08:30:56.795Z,7.97
2023-05-18T08:33:32.821Z,3.33
2023-05-18T08:36:09.354Z,2.67
2023-05-18T08:38:45.431Z,6.60
2023-05-18T08:41:31.093Z,3.50
2023-05-18T08:44:16.381Z,5.40
2023-05-18T08:46:53.703Z,5.13
2023-05-18T08:49:31.972Z,5.03
2023-05-18T08:52:09.240Z,6.50
2023-05-18T08:54:46.227Z,4.40
2023-05-18T08:57:23.473Z,4.37
2023-05-18T09:00:02.155Z,6.50
2023-05-18T09:02:40.909Z,3.53
2023-05-18T09:05:18.535Z,4.43
2023-05-18T09:07:56.280Z,6.27
2023-05-18T09:10:33.909Z,6.53
2023-05-18T09:13:11.330Z,5.10
2023-05-18T09:15:47.706Z,4.63
2023-05-18T09:18:25.591Z,3.30
2023-05-18T09:21:03.075Z,4.50
2023-05-18T09:23:41.407Z,2.00
2023-05-18T09:26:19.219Z,6.83
2023-05-18T09:28:55.516Z,4.43
2023-05-18T09:31:31.900Z,5.97
2023-05-18T09:34:08.068Z,4.53
2023-05-18T09:36:49.902Z,7.53
2023-05-18T09:39:25.915Z,8.87
2023-05-18T09:42:04.258Z,2.70
2023-05-18T09:44:41.472Z,4.60
2023-05-18T09:47:17.986Z,5.67
2023-05-18T09:49:57.806Z,3.50
2023-05-18T09:52:44.997Z,3.60
2023-05-18T09:55:21.299Z,2.80
2023-05-18T09:57:57.725Z,4.27
2023-05-18T10:00:41.411Z,5.23
2023-05-18T10:03:23.444Z,2.73
2023-05-18T10:06:10.613Z,6.53
2023-05-18T10:08:46.739Z,8.47
2023-05-18T10:11:23.380Z,3.13
2023-05-18T10:13:59.501Z,4.20
2023-05-18T10:16:35.716Z,3.63
2023-05-18T10:19:13.035Z,3.47
2023-05-18T10:21:50.941Z,4.83
2023-05-18T10:24:27.846Z,3.93
2023-05-18T10:27:09.345Z,5.80
2023-05-18T10:29:46.516Z,5.77
2023-05-18T10:32:25.448Z,3.90
2023-05-18T10:35:02.519Z,6.43
2023-05-18T10:37:42.099Z,4.00
2023-05-18T10:40:19.922Z,4.03
2023-05-18T10:42:58.746Z,2.77
2023-05-18T10:45:37.311Z,3.73
2023-05-18T10:48:15.215Z,4.27
2023-05-18T10:50:53.838Z,4.83
2023-05-18T10:53:29.969Z,5.20
2023-05-18T10:56:07.813Z,5.50
2023-05-18T10:58:45.114Z,3.30
2023-05-18T11:01:21.278Z,6.40
2023-05-18T11:03:57.313Z,4.20
2023-05-18T11:06:35.061Z,2.90
2023-05-18T11:09:23.689Z,4.47
2023-05-18T11:12:00.350Z,4.30
2023-05-18T11:14:36.414Z,2.90
2023-05-18T11:17:20.612Z,3.10
2023-05-18T11:20:09.022Z,4.50
2023-05-18T11:22:52.677Z,3.63
2023-05-18T11:25:28.955Z,4.50
2023-05-18T11:28:09.706Z,4.80
2023-05-18T11:30:48.343Z,6.83
2023-05-18T11:33:32.476Z,3.33
2023-05-18T11:36:14.466Z,2.23
2023-05-18T11:39:11.192Z,3.30
2023-05-18T11:42:11.561Z,4.30
2023-05-18T11:44:55.986Z,3.00
2023-05-18T11:47:32.163Z,3.13
2023-05-18T11:50:14.735Z,5.47
2023-05-18T11:52:53.206Z,3.60
2023-05-18T11:55:38.998Z,2.50
2023-05-18T11:58:19.064Z,2.30
2023-05-18T12:00:56.120Z,5.23
2023-05-18T12:03:32.747Z,3.13
2023-05-18T12:06:08.677Z,3.53
2023-05-18T12:08:46.056Z,5.10
2023-05-18T12:11:22.187Z,6.13
2023-05-18T12:13:58.505Z,2.37
2023-05-18T12:16:36.859Z,5.90
2023-05-18T12:19:12.873Z,4.13
2023-05-18T12:21:48.815Z,4.33
2023-05-18T12:24:24.711Z,2.60
2023-05-18T12:27:06.819Z,2.67
2023-05-18T12:29:43.454Z,2.53
2023-05-18T12:32:19.691Z,1.93
2023-05-18T12:34:55.664Z,3.93
2023-05-18T12:37:44.136Z,2.90
2023-05-18T12:40:20.709Z,4.00
2023-05-18T12:43:05.131Z,5.03
2023-05-18T12:45:43.948Z,3.53
2023-05-18T12:48:19.984Z,3.33
2023-05-18T12:50:56.362Z,2.93
2023-05-18T12:53:50.833Z,3.70
2023-05-18T12:56:26.838Z,2.60
2023-05-18T12:59:04.460Z,2.80
2023-05-18T13:01:44.031Z,3.83
2023-05-18T13:04:20.191Z,4.80
2023-05-18T13:06:56.979Z,4.00
2023-05-18T13:09:32.878Z,4.67
2023-05-18T13:12:08.987Z,2.07
2023-05-18T13:14:45.016Z,3.67
2023-05-18T13:17:24.067Z,4.60
2023-05-18T13:20:00.093Z,3.20
2023-05-18T13:22:36.052Z,1.97
2023-05-18T13:25:11.947Z,3.67
2023-05-18T13:27:49.566Z,3.27
2023-05-18T13:30:25.639Z,1.97
2023-05-18T13:33:01.605Z,4.10
2023-05-18T13:35:40.316Z,4.70
2023-05-18T13:38:16.283Z,2.53
2023-05-18T13:40:52.255Z,2.90
2023-05-18T13:43:28.171Z,3.37
2023-05-18T13:46:04.273Z,3.23
2023-05-18T13:48:40.156Z,2.50
2023-05-18T13:51:16.264Z,2.63
2023-05-18T13:53:52.218Z,3.70
2023-05-18T13:56:28.201Z,2.00
2023-05-18T13:59:04.092Z,3.90
2023-05-18T14:01:42.404Z,3.83
2023-05-18T14:04:18.478Z,2.60
2023-05-18T14:06:55.913Z,3.33
2023-05-18T14:09:31.828Z,3.90
2023-05-18T14:12:10.265Z,3.93
2023-05-18T14:14:46.198Z,2.77
2023-05-18T14:17:22.318Z,2.10
2023-05-18T14:19:58.983Z,1.70
2023-05-18T14:22:35.206Z,9.60
2023-05-18T14:25:11.463Z,1.70
2023-05-18T14:27:47.413Z,2.00
2023-05-18T14:30:23.454Z,4.60
2023-05-18T14:33:01.354Z,2.93
2023-05-18T14:35:37.976Z,2.83
2023-05-18T14:38:13.898Z,2.67
2023-05-18T14:40:49.780Z,3.03
2023-05-18T14:43:26.022Z,2.47
2023-05-18T14:46:08.559Z,5.63
2023-05-18T14:48:45.030Z,3.23
2023-05-18T14:51:22.048Z,7.37
2023-05-18T14:53:58.113Z,3.40
2023-05-18T14:56:34.102Z,2.20
2023-05-18T14:59:10.035Z,2.30
2023-05-18T15:01:46.876Z,2.70
2023-05-18T15:04:23.592Z,3.53
2023-05-18T15:06:59.560Z,3.77
2023-05-18T15:09:35.669Z,4.50
2023-05-18T15:12:11.663Z,3.07
2023-05-18T15:14:47.520Z,2.20
2023-05-18T15:17:24.184Z,1.73
2023-05-18T15:20:00.537Z,2.53
2023-05-18T15:22:38.321Z,2.20
2023-05-18T15:25:14.216Z,1.40
2023-05-18T15:27:50.278Z,3.70
2023-05-18T15:30:28.641Z,1.60
2023-05-18T15:33:06.340Z,7.23
2023-05-18T15:35:42.285Z,4.60
2023-05-18T15:38:18.151Z,1.97
2023-05-18T15:40:54.083Z,3.47
2023-05-18T15:43:31.081Z,2.20
2023-05-18T15:46:07.294Z,2.70
2023-05-18T15:48:43.583Z,7.10
2023-05-18T15:51:19.643Z,4.00
2023-05-18T15:54:01.810Z,1.50
2023-05-18T15:56:40.980Z,2.40
2023-05-18T15:59:16.974Z,2.60
2023-05-18T16:01:53.393Z,2.10
2023-05-18T16:04:29.631Z,3.23
2023-05-18T16:07:06.825Z,1.87
2023-05-18T16:09:42.907Z,1.47
2023-05-18T16:12:20.209Z,1.90
2023-05-18T16:14:56.635Z,1.63
2023-05-18T16:17:32.680Z,1.67
2023-05-18T16:20:09.876Z,1.43
2023-05-18T16:22:46.839Z,4.60
2023-05-18T16:25:24.049Z,2.17
2023-05-18T16:28:00.459Z,2.07
2023-05-18T16:30:37.872Z,3.60
2023-05-18T16:33:14.062Z,4.50
2023-05-18T16:35:50.298Z,4.33
2023-05-18T16:38:26.437Z,1.43
2023-05-18T16:41:07.084Z,3.70
2023-05-18T16:43:43.747Z,2.60
2023-05-18T16:46:20.118Z,1.40
2023-05-18T16:48:56.278Z,2.47
2023-05-18T16:51:32.494Z,3.63
2023-05-18T16:54:08.669Z,1.60
2023-05-18T16:56:44.781Z,2.37
2023-05-18T16:59:22.627Z,5.60
2023-05-18T17:01:58.979Z,2.97
2023-05-18T17:04:36.813Z,2.93
2023-05-18T17:07:13.509Z,1.97
2023-05-18T17:09:49.681Z,3.10
2023-05-18T17:12:25.925Z,3.53
2023-05-18T17:15:05.629Z,2.37
2023-05-18T17:17:43.173Z,3.77
2023-05-18T17:20:19.377Z,1.43
2023-05-18T17:22:55.453Z,1.90
2023-05-18T17:25:31.665Z,2.03
2023-05-18T17:28:07.861Z,2.63
2023-05-18T17:30:43.920Z,2.27
2023-05-18T17:33:19.957Z,2.70
2023-05-18T17:35:56.005Z,2.93
2023-05-18T17:38:32.046Z,4.03
2023-05-18T17:41:08.411Z,2.10
2023-05-18T17:43:44.433Z,4.70
2023-05-18T17:46:20.565Z,3.87
2023-05-18T17:48:56.885Z,3.53
2023-05-18T17:51:33.535Z,4.43
2023-05-18T17:54:09.927Z,2.80
2023-05-18T17:56:46.657Z,3.00
2023-05-18T17:59:22.966Z,2.63
2023-05-18T18:01:59.106Z,3.07
2023-05-18T18:04:35.176Z,3.40
2023-05-18T18:07:11.516Z,5.63
2023-05-18T18:09:50.632Z,6.97
2023-05-18T18:12:26.841Z,2.27
2023-05-18T18:15:02.778Z,3.43
2023-05-18T18:17:38.692Z,2.10
2023-05-18T18:20:14.702Z,4.00
2023-05-18T18:22:50.801Z,4.63
2023-05-18T18:25:26.781Z,3.27
2023-05-18T18:28:02.701Z,4.50
2023-05-18T18:30:38.669Z,2.80
2023-05-18T18:33:15.058Z,3.40
2023-05-18T18:35:51.725Z,2.33
2023-05-18T18:38:28.590Z,2.80
2023-05-18T18:41:05.100Z,2.40
2023-05-18T18:43:41.415Z,4.43
2023-05-18T18:46:17.391Z,1.80
2023-05-18T18:48:53.429Z,3.40
2023-05-18T18:51:29.340Z,1.87
2023-05-18T18:54:06.111Z,5.63
2023-05-18T18:56:43.978Z,4.37
2023-05-18T18:59:19.988Z,2.40
2023-05-18T19:01:56.220Z,2.37
2023-05-18T19:04:32.252Z,2.23
2023-05-18T19:07:08.324Z,2.27
2023-05-18T19:09:44.304Z,5.83
2023-05-18T19:12:20.240Z,4.13
2023-05-18T19:14:56.293Z,1.90
2023-05-18T19:17:32.369Z,1.50
2023-05-18T19:20:09.449Z,5.60
2023-05-18T19:22:45.520Z,1.83
2023-05-18T19:25:24.556Z,4.70
2023-05-18T19:28:00.766Z,5.37
2023-05-18T19:30:36.806Z,2.23
2023-05-18T19:33:12.935Z,2.80
2023-05-18T19:35:49.653Z,4.07
2023-05-18T19:38:25.843Z,3.23
2023-05-18T19:41:01.936Z,4.63
2023-05-18T19:43:37.882Z,3.10
2023-05-18T19:46:14.475Z,6.23
2023-05-18T19:48:50.767Z,5.80
2023-05-18T19:51:27.012Z,2.50
2023-05-18T19:54:03.782Z,2.80
2023-05-18T19:56:40.165Z,3.50
2023-05-18T19:59:16.370Z,2.50
2023-05-18T20:01:54.016Z,3.07
2023-05-18T20:07:10.587Z,4.00
2023-05-18T20:09:46.836Z,3.97
2023-05-18T20:12:22.868Z,5.57
2023-05-18T20:14:59.872Z,2.50
2023-05-18T20:17:37.870Z,4.20
2023-05-18T20:20:16.113Z,2.50
2023-05-18T20:22:52.047Z,3.23
2023-05-18T20:25:28.151Z,4.77
2023-05-18T20:28:07.346Z,4.63
2023-05-18T20:30:43.601Z,3.80
2023-05-18T20:33:20.384Z,3.90
2023-05-18T20:35:56.333Z,4.50
2023-05-18T20:38:32.346Z,4.03
2023-05-18T20:41:09.641Z,6.03
2023-05-18T20:43:45.978Z,3.63
2023-05-18T20:46:24.596Z,3.87
2023-05-18T20:49:00.538Z,3.43
2023-05-18T20:51:36.474Z,5.00
2023-05-18T20:54:12.455Z,5.83
2023-05-18T20:56:49.033Z,3.27
2023-05-18T20:59:24.989Z,4.53
2023-05-18T21:02:01.052Z,5.90
2023-05-18T21:04:37.050Z,4.40
2023-05-18T21:07:13.386Z,2.87
2023-05-18T21:09:49.676Z,4.43
2023-05-18T21:12:25.670Z,5.07
2023-05-18T21:15:02.850Z,4.73
2023-05-18T21:17:38.773Z,5.03
2023-05-18T21:20:14.848Z,4.00
2023-05-18T21:22:51.312Z,3.53
2023-05-18T21:25:27.562Z,3.30
2023-05-18T21:28:03.501Z,3.03
2023-05-18T21:30:39.364Z,2.40
2023-05-18T21:33:15.392Z,5.10
2023-05-18T21:35:51.434Z,2.47
2023-05-18T21:38:28.384Z,3.03
2023-05-18T21:41:04.350Z,3.70
2023-05-18T21:43:40.355Z,2.60
2023-05-18T21:46:16.316Z,2.83
2023-05-18T21:48:52.238Z,2.50
2023-05-18T21:51:31.170Z,2.63
2023-05-18T21:54:07.049Z,2.90
2023-05-18T21:56:43.177Z,2.20
2023-05-18T21:59:19.053Z,3.23
2023-05-18T22:01:55.083Z,2.17
2023-05-18T22:04:31.348Z,4.73
2023-05-18T22:07:07.333Z,4.00
2023-05-18T22:09:43.284Z,4.57
2023-05-18T22:12:20.814Z,4.20
2023-05-18T22:14:56.760Z,3.83
2023-05-18T22:17:32.669Z,3.43
2023-05-18T22:20:09.520Z,3.80
2023-05-18T22:22:45.520Z,2.70
2023-05-18T22:25:21.466Z,1.83
2023-05-18T22:27:57.391Z,2.00
2023-05-18T22:30:33.762Z,3.23
2023-05-18T22:33:09.821Z,3.00
2023-05-18T22:35:45.934Z,2.17
2023-05-18T22:38:21.944Z,3.60
2023-05-18T22:40:57.898Z,3.17
2023-05-18T22:43:33.789Z,2.23
2023-05-18T22:46:09.872Z,4.70
2023-05-18T22:48:45.794Z,3.73
2023-05-18T22:51:23.381Z,2.63
2023-05-18T22:53:59.654Z,3.53
2023-05-18T22:56:35.555Z,5.10
2023-05-18T22:59:11.856Z,3.13
2023-05-18T23:01:52.684Z,4.70
2023-05-18T23:04:28.662Z,4.83
2023-05-18T23:07:04.698Z,4.47
2023-05-18T23:09:40.578Z,3.30
2023-05-18T23:12:17.674Z,2.20
2023-05-18T23:14:55.750Z,2.93
2023-05-18T23:17:33.067Z,1.60
2023-05-18T23:20:11.350Z,4.07
2023-05-18T23:22:47.252Z,1.73
2023-05-18T23:25:23.500Z,3.43
2023-05-18T23:27:59.401Z,1.60
2023-05-18T23:30:35.314Z,1.70
2023-05-18T23:33:11.596Z,1.50
2023-05-18T23:35:48.836Z,3.57
2023-05-18T23:38:28.788Z,4.23
2023-05-18T23:41:05.405Z,3.97
2023-05-18T23:43:41.630Z,2.23
2023-05-18T23:46:18.088Z,3.83
2023-05-18T23:48:54.853Z,3.10
2023-05-18T23:51:35.719Z,2.20
2023-05-18T23:54:13.034Z,3.10
2023-05-18T23:56:50.624Z,1.53
2023-05-18T23:59:27.260Z,1.83
